sensor_id;sensor_type;location;lat;lon;timestamp;P1;durP1;ratioP1;P2;durP2;ratioP2
53688;SDS011;39583;54.682;30.662;2023-07-29T06:36:02;3.55;;;2.33;;
53688;SDS011;39583;54.682;30.662;2023-07-29T06:38:30;3.22;;;2.28;;
53688;SDS011;39583;54.682;30.662;2023-07-29T06:40:57;3.08;;;2.15;;
53688;SDS011;39583;54.682;30.662;2023-07-29T06:43:25;3.88;;;2.40;;
53688;SDS011;39583;54.682;30.662;2023-07-29T06:45:52;3.65;;;2.22;;
53688;SDS011;39583;54.682;30.662;2023-07-29T06:48:19;2.97;;;2.20;;
53688;SDS011;39583;54.682;30.662;2023-07-29T06:50:47;3.85;;;2.10;;
53688;SDS011;39583;54.682;30.662;2023-07-29T06:53:14;3.13;;;2.22;;
53688;SDS011;39583;54.682;30.662;2023-07-29T06:55:41;4.70;;;2.20;;
53688;SDS011;39583;54.682;30.662;2023-07-29T10:19:58;3.53;;;2.20;;
53688;SDS011;39583;54.682;30.662;2023-07-29T10:22:28;3.22;;;2.17;;
53688;SDS011;39583;54.682;30.662;2023-07-29T10:25:02;2.83;;;2.28;;
53688;SDS011;39583;54.682;30.662;2023-07-29T10:27:35;5.03;;;2.05;;
53688;SDS011;39583;54.682;30.662;2023-07-29T10:30:16;2.50;;;2.28;;
53688;SDS011;39583;54.682;30.662;2023-07-29T10:32:44;4.03;;;2.17;;
53688;SDS011;39583;54.682;30.662;2023-07-29T10:35:15;2.73;;;2.03;;
53688;SDS011;39583;54.682;30.662;2023-07-29T10:37:43;3.95;;;2.00;;
53688;SDS011;39583;54.682;30.662;2023-07-29T10:40:12;2.70;;;2.00;;
53688;SDS011;39583;54.682;30.662;2023-07-29T10:42:58;3.00;;;2.10;;
53688;SDS011;39583;54.682;30.662;2023-07-29T10:45:37;3.35;;;1.98;;
53688;SDS011;39583;54.682;30.662;2023-07-29T10:48:12;3.65;;;2.42;;
53688;SDS011;39583;54.682;30.662;2023-07-29T10:51:42;2.17;;;1.30;;
53688;SDS011;39583;54.682;30.662;2023-07-29T10:53:54;1.65;;;1.27;;
53688;SDS011;39583;54.682;30.662;2023-07-29T10:56:27;1.85;;;1.40;;
53688;SDS011;39583;54.682;30.662;2023-07-29T10:58:56;1.48;;;1.35;;
53688;SDS011;39583;54.682;30.662;2023-07-29T11:01:35;1.67;;;1.20;;
53688;SDS011;39583;54.682;30.662;2023-07-29T11:15:15;1.73;;;1.30;;
53688;SDS011;39583;54.682;30.662;2023-07-29T11:17:46;1.83;;;1.20;;
53688;SDS011;39583;54.682;30.662;2023-07-29T11:20:14;2.22;;;1.85;;
53688;SDS011;39583;54.682;30.662;2023-07-29T11:22:43;2.28;;;1.38;;
53688;SDS011;39583;54.682;30.662;2023-07-29T11:25:12;2.00;;;1.45;;
53688;SDS011;39583;54.682;30.662;2023-07-29T11:27:40;3.95;;;2.53;;
53688;SDS011;39583;54.682;30.662;2023-07-29T11:30:09;1.80;;;1.10;;
53688;SDS011;39583;54.682;30.662;2023-07-29T11:32:38;1.92;;;1.20;;
53688;SDS011;39583;54.682;30.662;2023-07-29T11:35:24;1.85;;;1.40;;
53688;SDS011;39583;54.682;30.662;2023-07-29T11:37:53;1.70;;;1.25;;
53688;SDS011;39583;54.682;30.662;2023-07-29T11:40:21;1.25;;;1.00;;
53688;SDS011;39583;54.682;30.662;2023-07-29T11:42:52;2.20;;;1.10;;
53688;SDS011;39583;54.682;30.662;2023-07-29T11:45:20;1.23;;;1.10;;
53688;SDS011;39583;54.682;30.662;2023-07-29T11:48:08;1.60;;;1.13;;
53688;SDS011;39583;54.682;30.662;2023-07-29T11:50:35;1.45;;;1.17;;
53688;SDS011;39583;54.682;30.662;2023-07-29T11:53:02;4.30;;;1.00;;
53688;SDS011;39583;54.682;30.662;2023-07-29T11:55:30;1.60;;;1.00;;
53688;SDS011;39583;54.682;30.662;2023-07-29T11:57:57;1.40;;;0.95;;
53688;SDS011;39583;54.682;30.662;2023-07-29T12:00:25;2.55;;;1.05;;
53688;SDS011;39583;54.682;30.662;2023-07-29T12:02:52;1.85;;;1.23;;
53688;SDS011;39583;54.682;30.662;2023-07-29T12:05:21;1.25;;;0.90;;
53688;SDS011;39583;54.682;30.662;2023-07-29T12:07:50;1.30;;;1.00;;
53688;SDS011;39583;54.682;30.662;2023-07-29T12:10:17;1.33;;;1.00;;
53688;SDS011;39583;54.682;30.662;2023-07-29T12:12:46;1.85;;;1.00;;
53688;SDS011;39583;54.682;30.662;2023-07-29T12:15:24;1.30;;;0.85;;
53688;SDS011;39583;54.682;30.662;2023-07-29T12:17:53;2.65;;;1.10;;
53688;SDS011;39583;54.682;30.662;2023-07-29T12:20:23;1.27;;;0.98;;
53688;SDS011;39583;54.682;30.662;2023-07-29T12:22:53;1.35;;;1.00;;
53688;SDS011;39583;54.682;30.662;2023-07-29T12:25:26;2.08;;;1.38;;
53688;SDS011;39583;54.682;30.662;2023-07-29T12:27:54;2.95;;;1.27;;
53688;SDS011;39583;54.682;30.662;2023-07-29T12:30:22;1.70;;;1.00;;
53688;SDS011;39583;54.682;30.662;2023-07-29T12:32:54;1.17;;;0.95;;
53688;SDS011;39583;54.682;30.662;2023-07-29T12:35:21;1.58;;;1.20;;
53688;SDS011;39583;54.682;30.662;2023-07-29T12:37:58;1.13;;;0.82;;
53688;SDS011;39583;54.682;30.662;2023-07-29T12:40:29;1.58;;;1.13;;
53688;SDS011;39583;54.682;30.662;2023-07-29T12:42:56;1.40;;;1.17;;
53688;SDS011;39583;54.682;30.662;2023-07-29T12:45:24;2.65;;;1.20;;
53688;SDS011;39583;54.682;30.662;2023-07-29T12:47:54;2.90;;;0.90;;
53688;SDS011;39583;54.682;30.662;2023-07-29T12:50:21;1.45;;;1.10;;
53688;SDS011;39583;54.682;30.662;2023-07-29T12:52:48;1.30;;;1.00;;
53688;SDS011;39583;54.682;30.662;2023-07-29T12:55:16;1.30;;;1.00;;
53688;SDS011;39583;54.682;30.662;2023-07-29T12:57:50;2.40;;;1.10;;
53688;SDS011;39583;54.682;30.662;2023-07-29T13:00:18;0.90;;;0.77;;
53688;SDS011;39583;54.682;30.662;2023-07-29T13:02:45;3.47;;;1.10;;
53688;SDS011;39583;54.682;30.662;2023-07-29T13:05:13;1.40;;;1.05;;
53688;SDS011;39583;54.682;30.662;2023-07-29T13:07:40;1.27;;;1.00;;
53688;SDS011;39583;54.682;30.662;2023-07-29T13:10:11;1.10;;;0.77;;
53688;SDS011;39583;54.682;30.662;2023-07-29T13:12:39;1.73;;;1.20;;
53688;SDS011;39583;54.682;30.662;2023-07-29T13:15:07;1.73;;;1.42;;
53688;SDS011;39583;54.682;30.662;2023-07-29T13:17:34;1.75;;;0.90;;
53688;SDS011;39583;54.682;30.662;2023-07-29T13:20:02;1.10;;;0.90;;
53688;SDS011;39583;54.682;30.662;2023-07-29T13:22:30;1.30;;;1.08;;
53688;SDS011;39583;54.682;30.662;2023-07-29T13:24:57;2.05;;;1.30;;
53688;SDS011;39583;54.682;30.662;2023-07-29T13:27:28;4.40;;;1.15;;
53688;SDS011;39583;54.682;30.662;2023-07-29T13:29:55;1.25;;;1.00;;
53688;SDS011;39583;54.682;30.662;2023-07-29T13:32:22;1.27;;;1.00;;
53688;SDS011;39583;54.682;30.662;2023-07-29T13:34:51;2.08;;;0.90;;
53688;SDS011;39583;54.682;30.662;2023-07-29T13:37:18;2.05;;;1.02;;
53688;SDS011;39583;54.682;30.662;2023-07-29T13:39:45;2.50;;;0.88;;
53688;SDS011;39583;54.682;30.662;2023-07-29T13:42:12;1.50;;;0.80;;
53688;SDS011;39583;54.682;30.662;2023-07-29T13:44:40;1.20;;;0.82;;
53688;SDS011;39583;54.682;30.662;2023-07-29T13:47:07;2.20;;;0.88;;
53688;SDS011;39583;54.682;30.662;2023-07-29T13:49:34;1.67;;;0.80;;
53688;SDS011;39583;54.682;30.662;2023-07-29T13:52:02;2.67;;;1.40;;
53688;SDS011;39583;54.682;30.662;2023-07-29T13:54:30;5.65;;;2.10;;
53688;SDS011;39583;54.682;30.662;2023-07-29T13:56:58;5.43;;;3.13;;
53688;SDS011;39583;54.682;30.662;2023-07-29T13:59:25;5.75;;;3.75;;
53688;SDS011;39583;54.682;30.662;2023-07-29T14:01:52;3.28;;;1.77;;
53688;SDS011;39583;54.682;30.662;2023-07-29T14:04:20;2.75;;;2.17;;
53688;SDS011;39583;54.682;30.662;2023-07-29T14:06:47;1.55;;;0.90;;
53688;SDS011;39583;54.682;30.662;2023-07-29T14:09:24;1.67;;;1.27;;
53688;SDS011;39583;54.682;30.662;2023-07-29T14:11:52;3.55;;;1.15;;
53688;SDS011;39583;54.682;30.662;2023-07-29T14:14:21;1.80;;;1.27;;
53688;SDS011;39583;54.682;30.662;2023-07-29T14:16:48;4.00;;;1.20;;
53688;SDS011;39583;54.682;30.662;2023-07-29T14:19:16;2.45;;;1.80;;
53688;SDS011;39583;54.682;30.662;2023-07-29T14:21:43;10.02;;;5.00;;
53688;SDS011;39583;54.682;30.662;2023-07-29T14:24:10;4.00;;;2.53;;
53688;SDS011;39583;54.682;30.662;2023-07-29T14:26:38;1.92;;;1.27;;
53688;SDS011;39583;54.682;30.662;2023-07-29T14:29:05;2.85;;;1.25;;
53688;SDS011;39583;54.682;30.662;2023-07-29T14:31:32;6.07;;;3.67;;
53688;SDS011;39583;54.682;30.662;2023-07-29T14:34:00;3.28;;;2.22;;
53688;SDS011;39583;54.682;30.662;2023-07-29T14:36:28;4.05;;;1.65;;
53688;SDS011;39583;54.682;30.662;2023-07-29T14:38:55;2.60;;;1.45;;
53688;SDS011;39583;54.682;30.662;2023-07-29T14:41:22;3.45;;;2.13;;
53688;SDS011;39583;54.682;30.662;2023-07-29T14:43:50;1.27;;;1.00;;
53688;SDS011;39583;54.682;30.662;2023-07-29T14:46:17;1.85;;;1.10;;
53688;SDS011;39583;54.682;30.662;2023-07-29T14:48:44;1.92;;;1.15;;
53688;SDS011;39583;54.682;30.662;2023-07-29T14:51:15;3.22;;;1.10;;
53688;SDS011;39583;54.682;30.662;2023-07-29T14:53:43;1.55;;;1.05;;
53688;SDS011;39583;54.682;30.662;2023-07-29T14:56:10;4.72;;;3.53;;
53688;SDS011;39583;54.682;30.662;2023-07-29T14:58:37;4.05;;;1.15;;
53688;SDS011;39583;54.682;30.662;2023-07-29T15:01:04;3.05;;;1.60;;
53688;SDS011;39583;54.682;30.662;2023-07-29T15:03:32;6.03;;;1.15;;
53688;SDS011;39583;54.682;30.662;2023-07-29T15:05:59;1.48;;;1.15;;
53688;SDS011;39583;54.682;30.662;2023-07-29T15:08:28;2.40;;;1.20;;
53688;SDS011;39583;54.682;30.662;2023-07-29T15:10:55;1.13;;;0.88;;
53688;SDS011;39583;54.682;30.662;2023-07-29T15:13:25;1.63;;;1.05;;
53688;SDS011;39583;54.682;30.662;2023-07-29T15:15:52;2.25;;;1.20;;
53688;SDS011;39583;54.682;30.662;2023-07-29T15:18:19;3.03;;;1.25;;
53688;SDS011;39583;54.682;30.662;2023-07-29T15:20:46;1.77;;;1.48;;
53688;SDS011;39583;54.682;30.662;2023-07-29T15:23:14;2.90;;;1.70;;
53688;SDS011;39583;54.682;30.662;2023-07-29T15:25:41;2.78;;;1.30;;
53688;SDS011;39583;54.682;30.662;2023-07-29T15:28:08;2.65;;;1.10;;
53688;SDS011;39583;54.682;30.662;2023-07-29T15:30:35;1.23;;;0.93;;
53688;SDS011;39583;54.682;30.662;2023-07-29T15:33:04;1.52;;;1.00;;
53688;SDS011;39583;54.682;30.662;2023-07-29T15:35:34;1.67;;;1.17;;
53688;SDS011;39583;54.682;30.662;2023-07-29T15:38:06;1.50;;;1.10;;
53688;SDS011;39583;54.682;30.662;2023-07-29T15:40:33;1.38;;;1.00;;
53688;SDS011;39583;54.682;30.662;2023-07-29T15:43:01;4.53;;;1.33;;
53688;SDS011;39583;54.682;30.662;2023-07-29T15:45:29;1.85;;;1.00;;
53688;SDS011;39583;54.682;30.662;2023-07-29T15:47:57;2.17;;;1.40;;
53688;SDS011;39583;54.682;30.662;2023-07-29T15:50:24;1.92;;;1.13;;
53688;SDS011;39583;54.682;30.662;2023-07-29T15:52:51;3.03;;;1.65;;
53688;SDS011;39583;54.682;30.662;2023-07-29T15:55:19;4.43;;;1.20;;
53688;SDS011;39583;54.682;30.662;2023-07-29T15:57:46;1.98;;;1.20;;
53688;SDS011;39583;54.682;30.662;2023-07-29T16:00:14;1.98;;;1.40;;
53688;SDS011;39583;54.682;30.662;2023-07-29T16:02:41;2.70;;;1.63;;
53688;SDS011;39583;54.682;30.662;2023-07-29T16:05:08;1.70;;;1.40;;
53688;SDS011;39583;54.682;30.662;2023-07-29T16:07:36;2.53;;;1.30;;
53688;SDS011;39583;54.682;30.662;2023-07-29T16:10:03;1.73;;;1.30;;
53688;SDS011;39583;54.682;30.662;2023-07-29T16:12:31;2.42;;;1.13;;
53688;SDS011;39583;54.682;30.662;2023-07-29T16:15:06;1.55;;;1.30;;
53688;SDS011;39583;54.682;30.662;2023-07-29T16:17:34;2.10;;;1.55;;
53688;SDS011;39583;54.682;30.662;2023-07-29T16:20:05;1.52;;;1.27;;
53688;SDS011;39583;54.682;30.662;2023-07-29T16:22:33;2.95;;;1.30;;
53688;SDS011;39583;54.682;30.662;2023-07-29T16:25:03;2.05;;;1.27;;
53688;SDS011;39583;54.682;30.662;2023-07-29T16:27:31;1.75;;;1.23;;
53688;SDS011;39583;54.682;30.662;2023-07-29T16:30:01;3.55;;;1.45;;
53688;SDS011;39583;54.682;30.662;2023-07-29T16:32:31;1.52;;;1.38;;
53688;SDS011;39583;54.682;30.662;2023-07-29T16:34:59;2.03;;;1.30;;
53688;SDS011;39583;54.682;30.662;2023-07-29T16:37:26;2.50;;;1.30;;
53688;SDS011;39583;54.682;30.662;2023-07-29T16:39:53;2.45;;;1.35;;
53688;SDS011;39583;54.682;30.662;2023-07-29T16:42:21;1.33;;;1.10;;
53688;SDS011;39583;54.682;30.662;2023-07-29T16:44:48;1.50;;;1.23;;
53688;SDS011;39583;54.682;30.662;2023-07-29T16:47:16;2.60;;;1.05;;
53688;SDS011;39583;54.682;30.662;2023-07-29T16:49:45;1.50;;;1.20;;
53688;SDS011;39583;54.682;30.662;2023-07-29T16:52:15;3.65;;;1.60;;
53688;SDS011;39583;54.682;30.662;2023-07-29T16:54:48;2.08;;;1.20;;
53688;SDS011;39583;54.682;30.662;2023-07-29T16:57:20;1.52;;;1.20;;
53688;SDS011;39583;54.682;30.662;2023-07-29T16:59:48;2.88;;;1.20;;
53688;SDS011;39583;54.682;30.662;2023-07-29T17:02:15;2.60;;;1.83;;
53688;SDS011;39583;54.682;30.662;2023-07-29T17:04:46;1.75;;;1.33;;
53688;SDS011;39583;54.682;30.662;2023-07-29T17:07:13;3.38;;;1.42;;
53688;SDS011;39583;54.682;30.662;2023-07-29T17:09:47;1.73;;;1.50;;
53688;SDS011;39583;54.682;30.662;2023-07-29T17:12:15;1.88;;;1.30;;
53688;SDS011;39583;54.682;30.662;2023-07-29T17:14:45;1.52;;;1.23;;
53688;SDS011;39583;54.682;30.662;2023-07-29T17:17:13;1.77;;;1.40;;
53688;SDS011;39583;54.682;30.662;2023-07-29T17:19:43;2.40;;;1.42;;
53688;SDS011;39583;54.682;30.662;2023-07-29T17:22:11;2.05;;;1.50;;
53688;SDS011;39583;54.682;30.662;2023-07-29T17:24:38;1.73;;;1.40;;
53688;SDS011;39583;54.682;30.662;2023-07-29T17:27:07;1.50;;;1.30;;
53688;SDS011;39583;54.682;30.662;2023-07-29T17:29:37;2.20;;;1.80;;
53688;SDS011;39583;54.682;30.662;2023-07-29T17:32:08;2.05;;;1.38;;
53688;SDS011;39583;54.682;30.662;2023-07-29T17:34:36;8.23;;;1.55;;
53688;SDS011;39583;54.682;30.662;2023-07-29T17:37:04;5.00;;;1.80;;
53688;SDS011;39583;54.682;30.662;2023-07-29T17:39:35;6.65;;;1.70;;
53688;SDS011;39583;54.682;30.662;2023-07-29T17:42:11;3.08;;;1.63;;
53688;SDS011;39583;54.682;30.662;2023-07-29T17:44:38;3.33;;;1.50;;
53688;SDS011;39583;54.682;30.662;2023-07-29T17:47:07;6.38;;;1.75;;
53688;SDS011;39583;54.682;30.662;2023-07-29T17:49:34;4.95;;;2.08;;
53688;SDS011;39583;54.682;30.662;2023-07-29T17:52:22;4.97;;;1.83;;
53688;SDS011;39583;54.682;30.662;2023-07-29T17:54:54;4.50;;;2.00;;
53688;SDS011;39583;54.682;30.662;2023-07-29T17:57:22;4.95;;;2.00;;
53688;SDS011;39583;54.682;30.662;2023-07-29T17:59:55;4.82;;;2.10;;
53688;SDS011;39583;54.682;30.662;2023-07-29T18:02:25;2.53;;;2.10;;
53688;SDS011;39583;54.682;30.662;2023-07-29T18:04:57;3.70;;;2.25;;
53688;SDS011;39583;54.682;30.662;2023-07-29T18:07:30;11.73;;;2.20;;
53688;SDS011;39583;54.682;30.662;2023-07-29T18:10:00;4.32;;;2.70;;
53688;SDS011;39583;54.682;30.662;2023-07-29T18:12:39;6.95;;;2.47;;
53688;SDS011;39583;54.682;30.662;2023-07-29T18:15:22;8.93;;;2.83;;
53688;SDS011;39583;54.682;30.662;2023-07-29T18:20:19;7.78;;;2.50;;
53688;SDS011;39583;54.682;30.662;2023-07-29T18:22:47;5.32;;;2.40;;
53688;SDS011;39583;54.682;30.662;2023-07-29T18:25:15;4.65;;;2.33;;
53688;SDS011;39583;54.682;30.662;2023-07-29T18:27:43;5.00;;;2.28;;
53688;SDS011;39583;54.682;30.662;2023-07-29T18:30:10;3.42;;;3.13;;
53688;SDS011;39583;54.682;30.662;2023-07-29T18:32:43;5.97;;;2.22;;
53688;SDS011;39583;54.682;30.662;2023-07-29T18:35:11;4.97;;;2.53;;
53688;SDS011;39583;54.682;30.662;2023-07-29T18:37:45;3.47;;;2.60;;
53688;SDS011;39583;54.682;30.662;2023-07-29T18:40:14;5.72;;;2.60;;
53688;SDS011;39583;54.682;30.662;2023-07-29T18:42:41;10.18;;;2.60;;
53688;SDS011;39583;54.682;30.662;2023-07-29T18:45:09;6.45;;;2.58;;
53688;SDS011;39583;54.682;30.662;2023-07-29T18:47:36;10.07;;;2.95;;
53688;SDS011;39583;54.682;30.662;2023-07-29T18:50:04;3.25;;;2.30;;
53688;SDS011;39583;54.682;30.662;2023-07-29T18:52:31;3.00;;;2.30;;
53688;SDS011;39583;54.682;30.662;2023-07-29T18:54:59;5.35;;;2.38;;
53688;SDS011;39583;54.682;30.662;2023-07-29T18:57:26;3.63;;;2.28;;
53688;SDS011;39583;54.682;30.662;2023-07-29T18:59:54;4.90;;;2.13;;
53688;SDS011;39583;54.682;30.662;2023-07-29T19:02:22;5.80;;;2.40;;
53688;SDS011;39583;54.682;30.662;2023-07-29T19:04:51;7.03;;;2.50;;
53688;SDS011;39583;54.682;30.662;2023-07-29T19:07:21;7.10;;;2.35;;
53688;SDS011;39583;54.682;30.662;2023-07-29T19:09:49;2.60;;;2.33;;
53688;SDS011;39583;54.682;30.662;2023-07-29T19:12:18;7.45;;;2.47;;
53688;SDS011;39583;54.682;30.662;2023-07-29T19:14:45;7.47;;;2.15;;
53688;SDS011;39583;54.682;30.662;2023-07-29T19:17:13;8.90;;;2.15;;
53688;SDS011;39583;54.682;30.662;2023-07-29T19:19:40;3.33;;;2.17;;
53688;SDS011;39583;54.682;30.662;2023-07-29T19:22:07;8.20;;;2.22;;
53688;SDS011;39583;54.682;30.662;2023-07-29T19:24:34;4.25;;;2.42;;
